Terminal Aerodrome Forecast
Issued by NWS

Home | Current Version | Previous Version | Text Only | Print | Product List | Glossary On
Versions: 1 2 3 4 5 6 7 8 9 10 11 12 13 14
000
FTUS44 KLIX 262323
TAFGPT
TAF
KGPT 262323Z 2700/2724 16015KT P6SM BKN015
     FM270800 20014KT P6SM BKN014
      TEMPO 2708/2711 3SM -TSRA OVC010CB
     FM271200 31009KT P6SM BKN015
     FM271300 31008KT P6SM BKN035
     FM271900 23005KT P6SM SKC
     FM272300 17007KT P6SM SKC=

USA.gov is the U.S. government's official web portal to all federal, state and local government web resources and services.